sensor_id;sensor_type;location;lat;lon;timestamp;pressure;altitude;pressure_sealevel;temperature;humidity
6449;BME280;3257;52.298;13.690;2022-12-07T00:01:41;78043.56;;;-144.77;93.99
6449;BME280;3257;52.298;13.690;2022-12-07T00:04:11;78045.56;;;-144.77;94.14
6449;BME280;3257;52.298;13.690;2022-12-07T00:06:40;78065.44;;;-144.77;93.65
6449;BME280;3257;52.298;13.690;2022-12-07T00:09:09;78067.44;;;-144.77;93.93
6449;BME280;3257;52.298;13.690;2022-12-07T00:11:36;78069.41;;;-144.77;93.83
6449;BME280;3257;52.298;13.690;2022-12-07T00:14:05;78077.38;;;-144.77;94.12
6449;BME280;3257;52.298;13.690;2022-12-07T00:16:33;78079.34;;;-144.77;93.77
6449;BME280;3257;52.298;13.690;2022-12-07T00:19:01;78083.34;;;-144.77;94.42
6449;BME280;3257;52.298;13.690;2022-12-07T00:21:30;78063.44;;;-144.77;93.95
6449;BME280;3257;52.298;13.690;2022-12-07T00:23:57;78061.47;;;-144.77;94.38
6449;BME280;3257;52.298;13.690;2022-12-07T00:26:30;78077.38;;;-144.77;94.29
6449;BME280;3257;52.298;13.690;2022-12-07T00:28:59;78073.41;;;-144.77;94.52
6449;BME280;3257;52.298;13.690;2022-12-07T00:31:28;78081.34;;;-144.77;93.87
6449;BME280;3257;52.298;13.690;2022-12-07T00:33:56;78081.34;;;-144.77;94.28
6449;BME280;3257;52.298;13.690;2022-12-07T00:36:24;78077.38;;;-144.77;93.96
6449;BME280;3257;52.298;13.690;2022-12-07T00:38:54;78077.38;;;-144.77;93.67
6449;BME280;3257;52.298;13.690;2022-12-07T00:41:23;78063.44;;;-144.77;93.31
6449;BME280;3257;52.298;13.690;2022-12-07T00:43:50;78073.41;;;-144.77;93.16
6449;BME280;3257;52.298;13.690;2022-12-07T00:46:18;78089.28;;;-144.77;92.57
6449;BME280;3257;52.298;13.690;2022-12-07T00:48:45;78085.31;;;-144.77;91.77
6449;BME280;3257;52.298;13.690;2022-12-07T00:51:13;78101.22;;;-144.77;91.86
6449;BME280;3257;52.298;13.690;2022-12-07T00:53:40;78089.28;;;-144.77;91.77
6449;BME280;3257;52.298;13.690;2022-12-07T00:56:19;78111.16;;;-144.77;91.69
6449;BME280;3257;52.298;13.690;2022-12-07T00:59:00;78113.16;;;-144.77;91.10
6449;BME280;3257;52.298;13.690;2022-12-07T01:01:31;78109.19;;;-144.77;91.17
6449;BME280;3257;52.298;13.690;2022-12-07T01:03:58;78103.22;;;-144.77;90.15
6449;BME280;3257;52.298;13.690;2022-12-07T01:06:27;78101.22;;;-144.77;90.69
6449;BME280;3257;52.298;13.690;2022-12-07T01:08:54;78091.28;;;-144.77;90.14
6449;BME280;3257;52.298;13.690;2022-12-07T01:11:23;78087.31;;;-144.77;90.94
6449;BME280;3257;52.298;13.690;2022-12-07T01:13:52;78079.34;;;-144.77;91.07
6449;BME280;3257;52.298;13.690;2022-12-07T01:16:19;78091.28;;;-144.77;91.12
6449;BME280;3257;52.298;13.690;2022-12-07T01:18:47;78087.31;;;-144.77;90.96
6449;BME280;3257;52.298;13.690;2022-12-07T01:21:23;78101.22;;;-144.77;90.37
6449;BME280;3257;52.298;13.690;2022-12-07T01:23:50;78103.22;;;-144.77;90.40
6449;BME280;3257;52.298;13.690;2022-12-07T01:26:21;78101.22;;;-144.77;90.58
6449;BME280;3257;52.298;13.690;2022-12-07T01:28:48;78109.19;;;-144.77;90.09
6449;BME280;3257;52.298;13.690;2022-12-07T01:31:17;78115.16;;;-144.77;89.83
6449;BME280;3257;52.298;13.690;2022-12-07T01:33:49;78107.19;;;-144.77;90.19
6449;BME280;3257;52.298;13.690;2022-12-07T01:36:29;78115.16;;;-144.77;90.39
6449;BME280;3257;52.298;13.690;2022-12-07T01:38:58;78125.09;;;-144.77;90.34
6449;BME280;3257;52.298;13.690;2022-12-07T01:41:28;78105.19;;;-144.77;90.35
6449;BME280;3257;52.298;13.690;2022-12-07T01:44:29;78125.09;;;-144.77;90.06
6449;BME280;3257;52.298;13.690;2022-12-07T01:47:00;78117.13;;;-144.77;90.66
6449;BME280;3257;52.298;13.690;2022-12-07T01:49:37;78121.09;;;-144.77;89.48
6449;BME280;3257;52.298;13.690;2022-12-07T01:52:25;78121.09;;;-144.77;89.42
6449;BME280;3257;52.298;13.690;2022-12-07T01:54:55;78131.03;;;-144.77;89.57
6449;BME280;3257;52.298;13.690;2022-12-07T01:57:23;78125.09;;;-144.77;89.44
6449;BME280;3257;52.298;13.690;2022-12-07T01:59:51;78125.09;;;-144.77;89.10
6449;BME280;3257;52.298;13.690;2022-12-07T02:02:21;78125.09;;;-144.77;87.28
6449;BME280;3257;52.298;13.690;2022-12-07T02:04:52;78125.09;;;-144.77;87.92
6449;BME280;3257;52.298;13.690;2022-12-07T02:07:20;78117.13;;;-144.77;87.54
6449;BME280;3257;52.298;13.690;2022-12-07T02:09:47;78117.13;;;-144.77;88.44
6449;BME280;3257;52.298;13.690;2022-12-07T02:12:14;78113.16;;;-144.77;88.12
6449;BME280;3257;52.298;13.690;2022-12-07T02:14:41;78101.22;;;-144.77;88.63
6449;BME280;3257;52.298;13.690;2022-12-07T02:17:10;78099.25;;;-144.77;88.21
6449;BME280;3257;52.298;13.690;2022-12-07T02:22:41;78101.22;;;-144.77;86.94
6449;BME280;3257;52.298;13.690;2022-12-07T02:27:56;78089.28;;;-144.77;86.98
6449;BME280;3257;52.298;13.690;2022-12-07T02:30:28;78085.31;;;-144.77;86.82
6449;BME280;3257;52.298;13.690;2022-12-07T02:33:01;78077.38;;;-144.77;86.42
6449;BME280;3257;52.298;13.690;2022-12-07T02:35:59;78101.22;;;-144.77;86.24
6449;BME280;3257;52.298;13.690;2022-12-07T02:38:42;78097.25;;;-144.77;85.54
6449;BME280;3257;52.298;13.690;2022-12-07T02:41:25;78115.16;;;-144.77;86.89
6449;BME280;3257;52.298;13.690;2022-12-07T02:43:57;78117.13;;;-144.77;86.53
6449;BME280;3257;52.298;13.690;2022-12-07T02:46:29;78131.03;;;-144.77;86.25
6449;BME280;3257;52.298;13.690;2022-12-07T02:48:57;78125.09;;;-144.77;86.65
6449;BME280;3257;52.298;13.690;2022-12-07T02:51:27;78133.03;;;-144.77;87.46
6449;BME280;3257;52.298;13.690;2022-12-07T02:53:55;78137.00;;;-144.77;87.44
6449;BME280;3257;52.298;13.690;2022-12-07T02:59:32;78115.16;;;-144.77;88.82
6449;BME280;3257;52.298;13.690;2022-12-07T03:02:25;78105.19;;;-144.77;88.16
6449;BME280;3257;52.298;13.690;2022-12-07T03:13:25;78101.22;;;-144.77;88.53
6449;BME280;3257;52.298;13.690;2022-12-07T03:16:07;78099.25;;;-144.77;88.36
6449;BME280;3257;52.298;13.690;2022-12-07T03:18:40;78085.31;;;-144.77;87.86
6449;BME280;3257;52.298;13.690;2022-12-07T03:21:13;78111.16;;;-144.77;88.33
6449;BME280;3257;52.298;13.690;2022-12-07T03:23:41;78109.19;;;-144.77;88.17
6449;BME280;3257;52.298;13.690;2022-12-07T03:26:12;78119.13;;;-144.77;88.37
6449;BME280;3257;52.298;13.690;2022-12-07T03:28:42;78119.13;;;-144.77;88.41
6449;BME280;3257;52.298;13.690;2022-12-07T03:31:19;78123.09;;;-144.77;88.77
6449;BME280;3257;52.298;13.690;2022-12-07T03:36:50;78107.19;;;-144.77;89.34
6449;BME280;3257;52.298;13.690;2022-12-07T03:39:38;78087.31;;;-144.77;89.06
6449;BME280;3257;52.298;13.690;2022-12-07T03:42:08;78089.28;;;-144.77;89.23
6449;BME280;3257;52.298;13.690;2022-12-07T03:44:36;78093.28;;;-144.77;89.68
6449;BME280;3257;52.298;13.690;2022-12-07T03:47:33;78095.25;;;-144.77;89.73
6449;BME280;3257;52.298;13.690;2022-12-07T03:50:13;78075.38;;;-144.77;89.75
6449;BME280;3257;52.298;13.690;2022-12-07T03:53:07;78071.41;;;-144.77;89.92
6449;BME280;3257;52.298;13.690;2022-12-07T03:55:37;78065.44;;;-144.77;90.13
6449;BME280;3257;52.298;13.690;2022-12-07T03:58:10;78057.50;;;-144.77;89.64
6449;BME280;3257;52.298;13.690;2022-12-07T04:00:37;78061.47;;;-144.77;89.94
6449;BME280;3257;52.298;13.690;2022-12-07T04:03:04;78073.41;;;-144.77;90.02
6449;BME280;3257;52.298;13.690;2022-12-07T04:05:30;78065.44;;;-144.77;90.31
6449;BME280;3257;52.298;13.690;2022-12-07T04:07:57;78057.50;;;-144.77;90.64
6449;BME280;3257;52.298;13.690;2022-12-07T04:10:23;78051.53;;;-144.77;89.99
6449;BME280;3257;52.298;13.690;2022-12-07T04:12:50;78063.44;;;-144.77;90.89
6449;BME280;3257;52.298;13.690;2022-12-07T04:15:16;78043.56;;;-144.77;90.71
6449;BME280;3257;52.298;13.690;2022-12-07T04:17:43;78041.59;;;-144.77;90.73
6449;BME280;3257;52.298;13.690;2022-12-07T04:20:10;78017.72;;;-144.77;90.56
6449;BME280;3257;52.298;13.690;2022-12-07T04:22:36;78013.75;;;-144.77;90.68
6449;BME280;3257;52.298;13.690;2022-12-07T04:25:03;77983.94;;;-144.77;90.57
6449;BME280;3257;52.298;13.690;2022-12-07T04:27:29;77972.00;;;-144.77;90.47
6449;BME280;3257;52.298;13.690;2022-12-07T04:29:56;77979.97;;;-144.77;91.07
6449;BME280;3257;52.298;13.690;2022-12-07T04:32:23;77983.94;;;-144.77;90.52
6449;BME280;3257;52.298;13.690;2022-12-07T04:34:50;77985.91;;;-144.77;90.74
6449;BME280;3257;52.298;13.690;2022-12-07T04:37:21;77977.97;;;-144.77;90.79
6449;BME280;3257;52.298;13.690;2022-12-07T04:39:48;77975.97;;;-144.77;90.69
6449;BME280;3257;52.298;13.690;2022-12-07T04:42:14;77979.97;;;-144.77;90.94
6449;BME280;3257;52.298;13.690;2022-12-07T04:44:41;77962.06;;;-144.77;91.47
6449;BME280;3257;52.298;13.690;2022-12-07T04:47:07;77960.06;;;-144.77;90.96
6449;BME280;3257;52.298;13.690;2022-12-07T04:49:34;77948.16;;;-144.77;91.23
6449;BME280;3257;52.298;13.690;2022-12-07T04:52:00;77954.13;;;-144.77;90.88
6449;BME280;3257;52.298;13.690;2022-12-07T04:54:27;77938.22;;;-144.77;90.86
6449;BME280;3257;52.298;13.690;2022-12-07T04:56:53;77964.06;;;-144.77;90.57
6449;BME280;3257;52.298;13.690;2022-12-07T04:59:20;77958.09;;;-144.77;90.54
6449;BME280;3257;52.298;13.690;2022-12-07T05:01:46;77940.19;;;-144.77;90.99
6449;BME280;3257;52.298;13.690;2022-12-07T05:04:13;77942.19;;;-144.77;91.29
6449;BME280;3257;52.298;13.690;2022-12-07T05:06:39;77940.19;;;-144.77;90.61
6449;BME280;3257;52.298;13.690;2022-12-07T05:09:06;77944.16;;;-144.77;91.24
6449;BME280;3257;52.298;13.690;2022-12-07T05:11:32;77930.25;;;-144.77;91.74
6449;BME280;3257;52.298;13.690;2022-12-07T05:14:08;77928.28;;;-144.77;91.87
6449;BME280;3257;52.298;13.690;2022-12-07T05:16:35;77930.25;;;-144.77;91.43
6449;BME280;3257;52.298;13.690;2022-12-07T05:19:02;77928.28;;;-144.77;91.75
6449;BME280;3257;52.298;13.690;2022-12-07T05:21:29;77924.28;;;-144.77;91.49
6449;BME280;3257;52.298;13.690;2022-12-07T05:23:55;77904.41;;;-144.77;91.77
6449;BME280;3257;52.298;13.690;2022-12-07T05:26:22;77916.34;;;-144.77;91.00
6449;BME280;3257;52.298;13.690;2022-12-07T05:28:53;77916.34;;;-144.77;91.38
6449;BME280;3257;52.298;13.690;2022-12-07T05:31:20;77922.31;;;-144.77;91.94
6449;BME280;3257;52.298;13.690;2022-12-07T05:33:47;77912.38;;;-144.77;92.14
6449;BME280;3257;52.298;13.690;2022-12-07T05:36:14;77930.25;;;-144.77;92.27
6449;BME280;3257;52.298;13.690;2022-12-07T05:38:41;77930.25;;;-144.77;92.77
6449;BME280;3257;52.298;13.690;2022-12-07T05:41:08;77912.38;;;-144.77;92.94
6449;BME280;3257;52.298;13.690;2022-12-07T05:43:57;77918.31;;;-144.77;92.74
6449;BME280;3257;52.298;13.690;2022-12-07T05:46:24;77922.31;;;-144.77;93.10
6449;BME280;3257;52.298;13.690;2022-12-07T05:48:50;77918.31;;;-144.77;92.93
6449;BME280;3257;52.298;13.690;2022-12-07T05:51:17;77928.28;;;-144.77;93.22
6449;BME280;3257;52.298;13.690;2022-12-07T05:53:43;77930.25;;;-144.77;93.37
6449;BME280;3257;52.298;13.690;2022-12-07T05:56:10;77932.25;;;-144.77;93.87
6449;BME280;3257;52.298;13.690;2022-12-07T05:58:36;77938.22;;;-144.77;94.18
6449;BME280;3257;52.298;13.690;2022-12-07T06:01:21;77926.28;;;-144.77;94.03
6449;BME280;3257;52.298;13.690;2022-12-07T06:03:48;77926.28;;;-144.77;94.06
6449;BME280;3257;52.298;13.690;2022-12-07T06:06:14;77924.28;;;-144.77;94.07
6449;BME280;3257;52.298;13.690;2022-12-07T06:08:41;77920.31;;;-144.77;93.79
6449;BME280;3257;52.298;13.690;2022-12-07T06:11:07;77918.31;;;-144.77;94.58
6449;BME280;3257;52.298;13.690;2022-12-07T06:13:52;77924.28;;;-144.77;94.43
6449;BME280;3257;52.298;13.690;2022-12-07T06:16:19;77908.38;;;-144.77;94.99
6449;BME280;3257;52.298;13.690;2022-12-07T06:18:45;77906.41;;;-144.77;95.04
6449;BME280;3257;52.298;13.690;2022-12-07T06:21:11;77894.47;;;-144.77;94.91
6449;BME280;3257;52.298;13.690;2022-12-07T06:23:38;77888.50;;;-144.77;95.09
6449;BME280;3257;52.298;13.690;2022-12-07T06:26:05;77862.66;;;-144.77;94.72
6449;BME280;3257;52.298;13.690;2022-12-07T06:28:31;77878.56;;;-144.77;94.55
6449;BME280;3257;52.298;13.690;2022-12-07T06:31:01;77864.66;;;-144.77;94.04
6449;BME280;3257;52.298;13.690;2022-12-07T06:33:28;77862.66;;;-144.77;94.49
6449;BME280;3257;52.298;13.690;2022-12-07T06:35:55;77856.69;;;-144.77;94.49
6449;BME280;3257;52.298;13.690;2022-12-07T06:38:21;77844.78;;;-144.77;93.85
6449;BME280;3257;52.298;13.690;2022-12-07T06:40:48;77836.81;;;-144.77;94.04
6449;BME280;3257;52.298;13.690;2022-12-07T06:43:14;77844.78;;;-144.77;93.87
6449;BME280;3257;52.298;13.690;2022-12-07T06:45:41;77838.81;;;-144.77;93.82
6449;BME280;3257;52.298;13.690;2022-12-07T06:48:08;77838.81;;;-144.77;94.14
6449;BME280;3257;52.298;13.690;2022-12-07T06:50:35;77838.81;;;-144.77;94.17
6449;BME280;3257;52.298;13.690;2022-12-07T06:53:01;77846.75;;;-144.77;94.11
6449;BME280;3257;52.298;13.690;2022-12-07T06:55:27;77840.78;;;-144.77;93.77
6449;BME280;3257;52.298;13.690;2022-12-07T06:57:54;77842.78;;;-144.77;93.89
6449;BME280;3257;52.298;13.690;2022-12-07T07:00:21;77838.81;;;-144.77;94.00
6449;BME280;3257;52.298;13.690;2022-12-07T07:02:48;77830.84;;;-144.77;93.84
6449;BME280;3257;52.298;13.690;2022-12-07T07:05:14;77834.84;;;-144.77;94.42
6449;BME280;3257;52.298;13.690;2022-12-07T07:07:42;77832.84;;;-144.77;94.57
6449;BME280;3257;52.298;13.690;2022-12-07T07:10:29;77842.78;;;-144.77;94.73
6449;BME280;3257;52.298;13.690;2022-12-07T07:12:55;77812.97;;;-144.77;95.07
6449;BME280;3257;52.298;13.690;2022-12-07T07:15:23;77809.00;;;-144.77;94.75
6449;BME280;3257;52.298;13.690;2022-12-07T07:17:49;77812.97;;;-144.77;94.84
6449;BME280;3257;52.298;13.690;2022-12-07T07:20:16;77809.00;;;-144.77;94.60
6449;BME280;3257;52.298;13.690;2022-12-07T07:22:42;77816.94;;;-144.77;94.50
6449;BME280;3257;52.298;13.690;2022-12-07T07:25:09;77812.97;;;-144.77;94.66
6449;BME280;3257;52.298;13.690;2022-12-07T07:27:35;77809.00;;;-144.77;94.42
6449;BME280;3257;52.298;13.690;2022-12-07T07:30:03;77809.00;;;-144.77;94.30
6449;BME280;3257;52.298;13.690;2022-12-07T07:32:30;77807.00;;;-144.77;94.34
6449;BME280;3257;52.298;13.690;2022-12-07T07:34:57;77805.00;;;-144.77;94.34
6449;BME280;3257;52.298;13.690;2022-12-07T07:37:23;77791.09;;;-144.77;94.13
6449;BME280;3257;52.298;13.690;2022-12-07T07:39:50;77795.06;;;-144.77;94.15
6449;BME280;3257;52.298;13.690;2022-12-07T07:42:16;77775.19;;;-144.77;94.68
6449;BME280;3257;52.298;13.690;2022-12-07T07:44:43;77769.22;;;-144.77;94.56
6449;BME280;3257;52.298;13.690;2022-12-07T07:47:09;77767.25;;;-144.77;94.45
6449;BME280;3257;52.298;13.690;2022-12-07T07:49:36;77767.25;;;-144.77;94.19
6449;BME280;3257;52.298;13.690;2022-12-07T07:52:06;77777.19;;;-144.77;94.02
6449;BME280;3257;52.298;13.690;2022-12-07T07:54:32;77771.22;;;-144.77;94.11
6449;BME280;3257;52.298;13.690;2022-12-07T07:56:59;77777.19;;;-144.77;93.85
6449;BME280;3257;52.298;13.690;2022-12-07T07:59:25;77763.28;;;-144.77;93.94
6449;BME280;3257;52.298;13.690;2022-12-07T08:01:52;77771.22;;;-144.77;94.36
6449;BME280;3257;52.298;13.690;2022-12-07T08:04:18;77765.25;;;-144.77;94.00
6449;BME280;3257;52.298;13.690;2022-12-07T08:06:45;77749.34;;;-144.77;94.20
6449;BME280;3257;52.298;13.690;2022-12-07T08:09:11;77753.34;;;-144.77;94.39
6449;BME280;3257;52.298;13.690;2022-12-07T08:11:38;77743.41;;;-144.77;94.25
6449;BME280;3257;52.298;13.690;2022-12-07T08:14:04;77739.41;;;-144.77;94.22
6449;BME280;3257;52.298;13.690;2022-12-07T08:16:31;77759.28;;;-144.77;93.87
6449;BME280;3257;52.298;13.690;2022-12-07T08:18:57;77735.44;;;-144.77;94.14
6449;BME280;3257;52.298;13.690;2022-12-07T08:21:24;77739.41;;;-144.77;93.60
6449;BME280;3257;52.298;13.690;2022-12-07T08:23:51;77759.28;;;-144.77;93.84
6449;BME280;3257;52.298;13.690;2022-12-07T08:26:17;77753.34;;;-144.77;94.12
6449;BME280;3257;52.298;13.690;2022-12-07T08:28:44;77753.34;;;-144.77;94.21
6449;BME280;3257;52.298;13.690;2022-12-07T08:31:14;77743.41;;;-144.77;94.57
6449;BME280;3257;52.298;13.690;2022-12-07T08:33:41;77741.41;;;-144.77;93.80
6449;BME280;3257;52.298;13.690;2022-12-07T08:36:10;77711.59;;;-144.77;94.41
6449;BME280;3257;52.298;13.690;2022-12-07T08:38:38;77711.59;;;-144.77;94.09
6449;BME280;3257;52.298;13.690;2022-12-07T08:41:06;77701.66;;;-144.77;93.67
6449;BME280;3257;52.298;13.690;2022-12-07T08:43:33;77699.66;;;-144.77;93.39
6449;BME280;3257;52.298;13.690;2022-12-07T08:48:57;77685.75;;;-144.77;93.02
6449;BME280;3257;52.298;13.690;2022-12-07T08:51:25;77703.63;;;-144.77;92.15
6449;BME280;3257;52.298;13.690;2022-12-07T08:53:52;77693.69;;;-144.77;92.39
6449;BME280;3257;52.298;13.690;2022-12-07T08:56:20;77695.69;;;-144.77;92.15
6449;BME280;3257;52.298;13.690;2022-12-07T08:58:48;77691.72;;;-144.77;92.22
6449;BME280;3257;52.298;13.690;2022-12-07T09:01:15;77677.78;;;-144.77;92.18
6449;BME280;3257;52.298;13.690;2022-12-07T09:03:42;77699.66;;;-144.77;92.09
6449;BME280;3257;52.298;13.690;2022-12-07T09:06:08;77703.63;;;-144.77;92.13
6449;BME280;3257;52.298;13.690;2022-12-07T09:08:42;77679.78;;;-144.77;92.01
6449;BME280;3257;52.298;13.690;2022-12-07T09:11:16;77669.84;;;-144.77;91.69
6449;BME280;3257;52.298;13.690;2022-12-07T09:13:56;77655.94;;;-144.77;91.86
6449;BME280;3257;52.298;13.690;2022-12-07T09:16:28;77677.78;;;-144.77;91.06
6449;BME280;3257;52.298;13.690;2022-12-07T09:19:02;77669.84;;;-144.77;89.75
6449;BME280;3257;52.298;13.690;2022-12-07T09:21:34;77661.88;;;-144.77;89.78
6449;BME280;3257;52.298;13.690;2022-12-07T09:24:02;77665.88;;;-144.77;89.28
6449;BME280;3257;52.298;13.690;2022-12-07T09:26:33;77677.78;;;-144.77;88.92
6449;BME280;3257;52.298;13.690;2022-12-07T09:29:04;77675.81;;;-144.77;88.58
6449;BME280;3257;52.298;13.690;2022-12-07T09:31:36;77671.81;;;-144.77;87.59
6449;BME280;3257;52.298;13.690;2022-12-07T09:34:03;77687.72;;;-144.77;87.36
6449;BME280;3257;52.298;13.690;2022-12-07T09:36:33;77691.72;;;-144.77;87.62
6449;BME280;3257;52.298;13.690;2022-12-07T09:38:59;77685.75;;;-144.77;86.72
6449;BME280;3257;52.298;13.690;2022-12-07T09:41:27;77691.72;;;-144.77;85.56
6449;BME280;3257;52.298;13.690;2022-12-07T09:44:06;77691.72;;;-144.77;84.72
6449;BME280;3257;52.298;13.690;2022-12-07T09:46:36;77707.63;;;-144.77;83.23
6449;BME280;3257;52.298;13.690;2022-12-07T09:49:05;77715.56;;;-144.77;83.00
6449;BME280;3257;52.298;13.690;2022-12-07T09:51:36;77707.63;;;-144.77;82.00
6449;BME280;3257;52.298;13.690;2022-12-07T09:54:02;77737.44;;;-144.77;79.94
6449;BME280;3257;52.298;13.690;2022-12-07T09:56:29;77749.34;;;-144.77;79.03
6449;BME280;3257;52.298;13.690;2022-12-07T09:59:02;77771.22;;;-144.77;78.86
6449;BME280;3257;52.298;13.690;2022-12-07T10:01:32;77775.19;;;-144.77;78.16
6449;BME280;3257;52.298;13.690;2022-12-07T10:04:21;77781.16;;;-144.77;78.32
6449;BME280;3257;52.298;13.690;2022-12-07T10:06:48;77767.25;;;-144.77;79.31
6449;BME280;3257;52.298;13.690;2022-12-07T10:09:19;77755.31;;;-144.77;79.19
6449;BME280;3257;52.298;13.690;2022-12-07T10:12:10;77751.34;;;-144.77;79.36
6449;BME280;3257;52.298;13.690;2022-12-07T10:14:56;77749.34;;;-144.77;79.44
6449;BME280;3257;52.298;13.690;2022-12-07T10:17:38;77741.41;;;-144.77;80.43
6449;BME280;3257;52.298;13.690;2022-12-07T10:20:22;77723.50;;;-144.77;78.44
6449;BME280;3257;52.298;13.690;2022-12-07T10:23:04;77721.53;;;-144.77;78.19
6449;BME280;3257;52.298;13.690;2022-12-07T10:25:34;77719.53;;;-144.77;77.89
6449;BME280;3257;52.298;13.690;2022-12-07T10:28:13;77729.47;;;-144.77;77.02
6449;BME280;3257;52.298;13.690;2022-12-07T10:33:48;77729.47;;;-144.77;76.04
6449;BME280;3257;52.298;13.690;2022-12-07T10:36:19;77751.34;;;-144.77;75.39
6449;BME280;3257;52.298;13.690;2022-12-07T10:39:02;77743.41;;;-144.77;75.76
6449;BME280;3257;52.298;13.690;2022-12-07T10:41:30;77757.31;;;-144.77;76.48
6449;BME280;3257;52.298;13.690;2022-12-07T10:43:57;77757.31;;;-144.77;76.91
6449;BME280;3257;52.298;13.690;2022-12-07T10:52:01;77755.31;;;-144.77;76.75
6449;BME280;3257;52.298;13.690;2022-12-07T10:54:59;77757.31;;;-144.77;76.54
6449;BME280;3257;52.298;13.690;2022-12-07T10:58:20;77753.34;;;-144.77;76.17
6449;BME280;3257;52.298;13.690;2022-12-07T11:01:13;77749.34;;;-144.77;75.69
6449;BME280;3257;52.298;13.690;2022-12-07T11:06:54;77743.41;;;-144.77;76.89
6449;BME280;3257;52.298;13.690;2022-12-07T11:10:05;77743.41;;;-144.77;76.52
6449;BME280;3257;52.298;13.690;2022-12-07T11:15:27;77725.50;;;-144.77;76.44
6449;BME280;3257;52.298;13.690;2022-12-07T11:18:07;77703.63;;;-144.77;77.07
6449;BME280;3257;52.298;13.690;2022-12-07T11:20:54;77679.78;;;-144.77;76.46
6449;BME280;3257;52.298;13.690;2022-12-07T11:23:29;77655.94;;;-144.77;77.52
6449;BME280;3257;52.298;13.690;2022-12-07T11:26:13;77655.94;;;-144.77;75.67
6449;BME280;3257;52.298;13.690;2022-12-07T11:36:59;77634.06;;;-144.77;76.79
6449;BME280;3257;52.298;13.690;2022-12-07T11:39:33;77646.00;;;-144.77;77.35
6449;BME280;3257;52.298;13.690;2022-12-07T11:42:06;77642.00;;;-144.77;76.71
6449;BME280;3257;52.298;13.690;2022-12-07T11:47:27;77671.81;;;-144.77;77.76
6449;BME280;3257;52.298;13.690;2022-12-07T11:50:03;77667.84;;;-144.77;77.67
6449;BME280;3257;52.298;13.690;2022-12-07T11:52:52;77683.75;;;-144.77;77.82
6449;BME280;3257;52.298;13.690;2022-12-07T11:55:29;77661.88;;;-144.77;77.78
6449;BME280;3257;52.298;13.690;2022-12-07T12:00:39;77667.84;;;-144.77;77.72
6449;BME280;3257;52.298;13.690;2022-12-07T12:03:26;77644.00;;;-144.77;77.16
6449;BME280;3257;52.298;13.690;2022-12-07T12:05:56;77634.06;;;-144.77;77.14
6449;BME280;3257;52.298;13.690;2022-12-07T12:08:32;77646.00;;;-144.77;76.52
6449;BME280;3257;52.298;13.690;2022-12-07T12:12:25;77640.03;;;-144.77;78.32
6449;BME280;3257;52.298;13.690;2022-12-07T12:17:50;77642.00;;;-144.77;77.37
6449;BME280;3257;52.298;13.690;2022-12-07T12:20:37;77636.06;;;-144.77;77.92
6449;BME280;3257;52.298;13.690;2022-12-07T12:25:52;77604.25;;;-144.77;78.02
6449;BME280;3257;52.298;13.690;2022-12-07T12:31:32;77600.28;;;-144.77;78.13
6449;BME280;3257;52.298;13.690;2022-12-07T12:34:03;77612.19;;;-144.77;78.37
6449;BME280;3257;52.298;13.690;2022-12-07T12:46:49;77612.19;;;-144.77;77.79
6449;BME280;3257;52.298;13.690;2022-12-07T12:51:50;77604.25;;;-144.77;77.48
6449;BME280;3257;52.298;13.690;2022-12-07T12:59:35;77580.41;;;-144.77;78.32
6449;BME280;3257;52.298;13.690;2022-12-07T13:02:16;77580.41;;;-144.77;78.66
6449;BME280;3257;52.298;13.690;2022-12-07T13:04:52;77584.38;;;-144.77;77.86
6449;BME280;3257;52.298;13.690;2022-12-07T13:10:21;77600.28;;;-144.77;78.37
6449;BME280;3257;52.298;13.690;2022-12-07T13:18:38;77576.41;;;-144.77;78.78
6449;BME280;3257;52.298;13.690;2022-12-07T13:26:39;77560.50;;;-144.77;78.27
6449;BME280;3257;52.298;13.690;2022-12-07T13:31:42;77558.53;;;-144.77;77.82
6449;BME280;3257;52.298;13.690;2022-12-07T13:34:32;77544.63;;;-144.77;77.76
6449;BME280;3257;52.298;13.690;2022-12-07T13:39:53;77552.56;;;-144.77;78.50
6449;BME280;3257;52.298;13.690;2022-12-07T13:42:31;77552.56;;;-144.77;78.29
6449;BME280;3257;52.298;13.690;2022-12-07T13:44:59;77564.50;;;-144.77;78.27
6449;BME280;3257;52.298;13.690;2022-12-07T13:47:32;77588.34;;;-144.77;78.68
6449;BME280;3257;52.298;13.690;2022-12-07T13:50:01;77572.44;;;-144.77;79.15
6449;BME280;3257;52.298;13.690;2022-12-07T13:52:30;77568.47;;;-144.77;79.05
6449;BME280;3257;52.298;13.690;2022-12-07T13:57:34;77588.34;;;-144.77;79.75
6449;BME280;3257;52.298;13.690;2022-12-07T14:00:06;77592.31;;;-144.77;79.49
6449;BME280;3257;52.298;13.690;2022-12-07T14:07:56;77600.28;;;-144.77;79.82
6449;BME280;3257;52.298;13.690;2022-12-07T14:13:28;77618.16;;;-144.77;79.95
6449;BME280;3257;52.298;13.690;2022-12-07T14:15:57;77632.06;;;-144.77;80.53
6449;BME280;3257;52.298;13.690;2022-12-07T14:18:30;77636.06;;;-144.77;81.02
6449;BME280;3257;52.298;13.690;2022-12-07T14:23:39;77644.00;;;-144.77;80.70
6449;BME280;3257;52.298;13.690;2022-12-07T14:26:19;77653.94;;;-144.77;81.63
6449;BME280;3257;52.298;13.690;2022-12-07T14:28:47;77649.97;;;-144.77;81.59
6449;BME280;3257;52.298;13.690;2022-12-07T14:31:18;77647.97;;;-144.77;81.18
6449;BME280;3257;52.298;13.690;2022-12-07T14:33:59;77649.97;;;-144.77;81.90
6449;BME280;3257;52.298;13.690;2022-12-07T14:36:25;77657.91;;;-144.77;82.42
6449;BME280;3257;52.298;13.690;2022-12-07T14:38:51;77651.94;;;-144.77;81.79
6449;BME280;3257;52.298;13.690;2022-12-07T14:41:21;77675.81;;;-144.77;82.29
6449;BME280;3257;52.298;13.690;2022-12-07T14:44:12;77673.81;;;-144.77;82.13
6449;BME280;3257;52.298;13.690;2022-12-07T14:46:51;77671.81;;;-144.77;81.98
6449;BME280;3257;52.298;13.690;2022-12-07T14:49:38;77669.84;;;-144.77;82.76
6449;BME280;3257;52.298;13.690;2022-12-07T14:52:06;77675.81;;;-144.77;82.89
6449;BME280;3257;52.298;13.690;2022-12-07T14:54:57;77677.78;;;-144.77;82.47
6449;BME280;3257;52.298;13.690;2022-12-07T14:57:23;77671.81;;;-144.77;82.27
6449;BME280;3257;52.298;13.690;2022-12-07T14:59:50;77685.75;;;-144.77;82.19
6449;BME280;3257;52.298;13.690;2022-12-07T15:02:16;77689.72;;;-144.77;83.06
6449;BME280;3257;52.298;13.690;2022-12-07T15:04:43;77699.66;;;-144.77;83.02